sensor_id;sensor_type;location;lat;lon;timestamp;P1;durP1;ratioP1;P2;durP2;ratioP2
71959;SDS011;59832;51.146;14.024;2023-07-22T04:02:32;10.32;;;8.50;;
71959;SDS011;59832;51.146;14.024;2023-07-22T04:04:59;12.43;;;8.77;;
71959;SDS011;59832;51.146;14.024;2023-07-22T04:07:25;14.02;;;10.45;;
71959;SDS011;59832;51.146;14.024;2023-07-22T04:09:51;16.67;;;12.13;;
71959;SDS011;59832;51.146;14.024;2023-07-22T04:12:18;16.98;;;12.38;;
71959;SDS011;59832;51.146;14.024;2023-07-22T04:14:44;17.20;;;13.80;;
71959;SDS011;59832;51.146;14.024;2023-07-22T04:17:11;17.42;;;14.73;;
71959;SDS011;59832;51.146;14.024;2023-07-22T04:19:37;15.13;;;13.73;;
71959;SDS011;59832;51.146;14.024;2023-07-22T04:22:04;12.23;;;10.48;;
71959;SDS011;59832;51.146;14.024;2023-07-22T04:24:31;9.05;;;8.15;;
71959;SDS011;59832;51.146;14.024;2023-07-22T04:26:58;8.50;;;6.38;;
71959;SDS011;59832;51.146;14.024;2023-07-22T04:29:25;6.47;;;5.85;;
71959;SDS011;59832;51.146;14.024;2023-07-22T04:31:56;6.80;;;6.00;;
71959;SDS011;59832;51.146;14.024;2023-07-22T04:34:23;6.68;;;5.90;;
71959;SDS011;59832;51.146;14.024;2023-07-22T04:36:51;7.70;;;5.60;;
71959;SDS011;59832;51.146;14.024;2023-07-22T04:39:18;6.10;;;5.60;;
71959;SDS011;59832;51.146;14.024;2023-07-22T04:41:44;7.47;;;5.50;;
71959;SDS011;59832;51.146;14.024;2023-07-22T04:44:11;6.85;;;5.13;;
71959;SDS011;59832;51.146;14.024;2023-07-22T04:46:37;10.60;;;5.60;;
71959;SDS011;59832;51.146;14.024;2023-07-22T04:49:04;6.70;;;5.70;;
71959;SDS011;59832;51.146;14.024;2023-07-22T04:51:30;7.00;;;6.32;;
71959;SDS011;59832;51.146;14.024;2023-07-22T04:56:24;11.10;;;5.07;;
71959;SDS011;59832;51.146;14.024;2023-07-22T04:58:51;8.43;;;4.90;;
71959;SDS011;59832;51.146;14.024;2023-07-22T05:01:18;6.73;;;4.73;;
71959;SDS011;59832;51.146;14.024;2023-07-22T05:03:44;6.77;;;4.40;;
71959;SDS011;59832;51.146;14.024;2023-07-22T05:06:11;5.15;;;4.07;;
71959;SDS011;59832;51.146;14.024;2023-07-22T05:08:37;6.15;;;4.43;;
71959;SDS011;59832;51.146;14.024;2023-07-22T05:11:04;7.45;;;4.65;;
71959;SDS011;59832;51.146;14.024;2023-07-22T05:13:30;6.95;;;4.70;;
71959;SDS011;59832;51.146;14.024;2023-07-22T05:15:57;11.90;;;5.00;;
71959;SDS011;59832;51.146;14.024;2023-07-22T05:18:23;8.00;;;5.40;;
71959;SDS011;59832;51.146;14.024;2023-07-22T05:20:50;8.10;;;4.82;;
71959;SDS011;59832;51.146;14.024;2023-07-22T05:23:16;6.05;;;4.78;;
71959;SDS011;59832;51.146;14.024;2023-07-22T05:25:43;7.70;;;5.00;;
71959;SDS011;59832;51.146;14.024;2023-07-22T05:28:09;10.18;;;4.57;;
71959;SDS011;59832;51.146;14.024;2023-07-22T05:30:36;5.10;;;4.70;;
71959;SDS011;59832;51.146;14.024;2023-07-22T05:33:02;4.68;;;4.18;;
71959;SDS011;59832;51.146;14.024;2023-07-22T05:35:29;6.45;;;4.60;;
71959;SDS011;59832;51.146;14.024;2023-07-22T05:37:56;4.90;;;4.40;;
71959;SDS011;59832;51.146;14.024;2023-07-22T05:40:22;5.85;;;4.10;;
71959;SDS011;59832;51.146;14.024;2023-07-22T05:42:49;5.10;;;4.60;;
71959;SDS011;59832;51.146;14.024;2023-07-22T05:45:15;4.78;;;4.38;;
71959;SDS011;59832;51.146;14.024;2023-07-22T05:47:42;7.72;;;4.57;;
71959;SDS011;59832;51.146;14.024;2023-07-22T05:50:09;4.72;;;4.38;;
71959;SDS011;59832;51.146;14.024;2023-07-22T05:52:36;5.65;;;4.30;;
71959;SDS011;59832;51.146;14.024;2023-07-22T05:55:03;7.35;;;5.10;;
71959;SDS011;59832;51.146;14.024;2023-07-22T05:57:29;8.20;;;4.43;;
71959;SDS011;59832;51.146;14.024;2023-07-22T05:59:57;5.38;;;4.80;;
71959;SDS011;59832;51.146;14.024;2023-07-22T06:02:33;7.32;;;4.63;;
71959;SDS011;59832;51.146;14.024;2023-07-22T06:05:00;6.07;;;5.25;;
71959;SDS011;59832;51.146;14.024;2023-07-22T06:07:27;6.85;;;5.20;;
71959;SDS011;59832;51.146;14.024;2023-07-22T06:09:54;6.23;;;4.90;;
71959;SDS011;59832;51.146;14.024;2023-07-22T06:12:20;7.20;;;4.93;;
71959;SDS011;59832;51.146;14.024;2023-07-22T06:14:47;6.78;;;5.40;;
71959;SDS011;59832;51.146;14.024;2023-07-22T06:17:13;6.00;;;5.33;;
71959;SDS011;59832;51.146;14.024;2023-07-22T06:19:40;7.85;;;5.50;;
71959;SDS011;59832;51.146;14.024;2023-07-22T06:22:06;9.15;;;5.45;;
71959;SDS011;59832;51.146;14.024;2023-07-22T06:24:33;8.77;;;5.00;;
71959;SDS011;59832;51.146;14.024;2023-07-22T06:26:59;5.65;;;5.07;;
71959;SDS011;59832;51.146;14.024;2023-07-22T06:29:26;7.65;;;5.22;;
71959;SDS011;59832;51.146;14.024;2023-07-22T06:31:52;5.82;;;5.22;;
71959;SDS011;59832;51.146;14.024;2023-07-22T06:34:19;5.43;;;4.93;;
71959;SDS011;59832;51.146;14.024;2023-07-22T06:36:46;10.10;;;5.47;;
71959;SDS011;59832;51.146;14.024;2023-07-22T06:39:13;7.13;;;5.53;;
71959;SDS011;59832;51.146;14.024;2023-07-22T06:41:39;6.37;;;4.87;;
71959;SDS011;59832;51.146;14.024;2023-07-22T06:44:05;6.97;;;4.85;;
71959;SDS011;59832;51.146;14.024;2023-07-22T06:46:32;5.40;;;4.88;;
71959;SDS011;59832;51.146;14.024;2023-07-22T06:48:59;6.57;;;4.45;;
71959;SDS011;59832;51.146;14.024;2023-07-22T06:51:25;6.50;;;4.57;;
71959;SDS011;59832;51.146;14.024;2023-07-22T06:53:52;4.97;;;4.47;;
71959;SDS011;59832;51.146;14.024;2023-07-22T06:56:18;5.27;;;4.80;;
71959;SDS011;59832;51.146;14.024;2023-07-22T06:58:44;6.07;;;4.38;;
71959;SDS011;59832;51.146;14.024;2023-07-22T07:01:11;4.60;;;4.20;;
71959;SDS011;59832;51.146;14.024;2023-07-22T07:03:37;6.60;;;4.32;;
71959;SDS011;59832;51.146;14.024;2023-07-22T07:06:04;4.90;;;4.20;;
71959;SDS011;59832;51.146;14.024;2023-07-22T07:08:30;4.43;;;4.03;;
71959;SDS011;59832;51.146;14.024;2023-07-22T07:10:58;5.07;;;4.50;;
71959;SDS011;59832;51.146;14.024;2023-07-22T07:13:25;5.15;;;3.90;;
71959;SDS011;59832;51.146;14.024;2023-07-22T07:15:52;4.33;;;3.90;;
71959;SDS011;59832;51.146;14.024;2023-07-22T07:18:18;4.43;;;4.03;;
71959;SDS011;59832;51.146;14.024;2023-07-22T07:20:45;5.53;;;4.20;;
71959;SDS011;59832;51.146;14.024;2023-07-22T07:23:12;4.72;;;3.60;;
71959;SDS011;59832;51.146;14.024;2023-07-22T07:25:39;6.13;;;4.05;;
71959;SDS011;59832;51.146;14.024;2023-07-22T07:28:06;5.17;;;3.90;;
71959;SDS011;59832;51.146;14.024;2023-07-22T07:30:32;4.30;;;3.73;;
71959;SDS011;59832;51.146;14.024;2023-07-22T07:32:59;4.68;;;4.10;;
71959;SDS011;59832;51.146;14.024;2023-07-22T07:35:25;4.83;;;3.57;;
71959;SDS011;59832;51.146;14.024;2023-07-22T07:37:52;5.00;;;4.50;;
71959;SDS011;59832;51.146;14.024;2023-07-22T07:40:18;4.30;;;3.63;;
71959;SDS011;59832;51.146;14.024;2023-07-22T07:42:45;4.00;;;3.70;;
71959;SDS011;59832;51.146;14.024;2023-07-22T07:45:11;3.87;;;3.50;;
71959;SDS011;59832;51.146;14.024;2023-07-22T07:47:38;4.18;;;3.58;;
71959;SDS011;59832;51.146;14.024;2023-07-22T07:50:05;4.78;;;3.58;;
71959;SDS011;59832;51.146;14.024;2023-07-22T07:52:33;4.55;;;3.60;;
71959;SDS011;59832;51.146;14.024;2023-07-22T07:54:59;3.73;;;3.37;;
71959;SDS011;59832;51.146;14.024;2023-07-22T07:57:26;5.72;;;3.85;;
71959;SDS011;59832;51.146;14.024;2023-07-22T07:59:52;5.43;;;3.70;;
71959;SDS011;59832;51.146;14.024;2023-07-22T08:02:19;5.47;;;3.60;;
71959;SDS011;59832;51.146;14.024;2023-07-22T08:04:45;3.65;;;3.35;;
71959;SDS011;59832;51.146;14.024;2023-07-22T08:07:14;5.85;;;3.60;;
71959;SDS011;59832;51.146;14.024;2023-07-22T08:09:42;3.72;;;3.42;;
71959;SDS011;59832;51.146;14.024;2023-07-22T08:12:08;4.67;;;3.87;;
71959;SDS011;59832;51.146;14.024;2023-07-22T08:14:35;4.13;;;3.83;;
71959;SDS011;59832;51.146;14.024;2023-07-22T08:17:02;3.85;;;3.55;;
71959;SDS011;59832;51.146;14.024;2023-07-22T08:19:29;3.80;;;3.33;;
71959;SDS011;59832;51.146;14.024;2023-07-22T08:21:56;6.38;;;3.75;;
71959;SDS011;59832;51.146;14.024;2023-07-22T08:24:22;4.25;;;3.47;;
71959;SDS011;59832;51.146;14.024;2023-07-22T08:26:49;3.95;;;3.42;;
71959;SDS011;59832;51.146;14.024;2023-07-22T08:29:15;4.60;;;3.60;;
71959;SDS011;59832;51.146;14.024;2023-07-22T08:31:42;4.60;;;3.50;;
71959;SDS011;59832;51.146;14.024;2023-07-22T08:34:08;3.70;;;3.30;;
71959;SDS011;59832;51.146;14.024;2023-07-22T08:36:35;5.05;;;3.40;;
71959;SDS011;59832;51.146;14.024;2023-07-22T08:39:02;4.30;;;3.13;;
71959;SDS011;59832;51.146;14.024;2023-07-22T08:41:29;3.42;;;3.13;;
71959;SDS011;59832;51.146;14.024;2023-07-22T08:43:56;3.38;;;3.08;;
71959;SDS011;59832;51.146;14.024;2023-07-22T08:46:28;5.13;;;3.25;;
71959;SDS011;59832;51.146;14.024;2023-07-22T08:48:56;3.30;;;3.00;;
71959;SDS011;59832;51.146;14.024;2023-07-22T08:51:25;4.32;;;3.08;;
71959;SDS011;59832;51.146;14.024;2023-07-22T08:53:54;5.05;;;3.00;;
71959;SDS011;59832;51.146;14.024;2023-07-22T08:56:36;4.18;;;2.83;;
71959;SDS011;59832;51.146;14.024;2023-07-22T08:59:04;2.92;;;2.63;;
71959;SDS011;59832;51.146;14.024;2023-07-22T09:01:32;3.08;;;2.80;;
71959;SDS011;59832;51.146;14.024;2023-07-22T09:04:01;3.00;;;2.80;;
71959;SDS011;59832;51.146;14.024;2023-07-22T09:06:27;2.95;;;2.75;;
71959;SDS011;59832;51.146;14.024;2023-07-22T09:08:55;3.53;;;2.88;;
71959;SDS011;59832;51.146;14.024;2023-07-22T09:11:21;3.22;;;2.90;;
71959;SDS011;59832;51.146;14.024;2023-07-22T09:16:16;4.15;;;2.88;;
71959;SDS011;59832;51.146;14.024;2023-07-22T09:18:44;3.25;;;2.63;;
71959;SDS011;59832;51.146;14.024;2023-07-22T09:21:10;4.18;;;2.90;;
71959;SDS011;59832;51.146;14.024;2023-07-22T09:23:37;3.42;;;3.08;;
71959;SDS011;59832;51.146;14.024;2023-07-22T09:26:08;2.85;;;2.65;;
71959;SDS011;59832;51.146;14.024;2023-07-22T09:31:34;2.85;;;2.65;;
71959;SDS011;59832;51.146;14.024;2023-07-22T09:34:15;3.15;;;2.88;;
71959;SDS011;59832;51.146;14.024;2023-07-22T09:36:58;3.73;;;2.80;;
71959;SDS011;59832;51.146;14.024;2023-07-22T09:39:30;3.10;;;2.80;;
71959;SDS011;59832;51.146;14.024;2023-07-22T09:41:56;3.22;;;2.90;;
71959;SDS011;59832;51.146;14.024;2023-07-22T09:44:29;3.45;;;2.80;;
71959;SDS011;59832;51.146;14.024;2023-07-22T09:46:58;2.92;;;2.72;;
71959;SDS011;59832;51.146;14.024;2023-07-22T09:49:32;2.75;;;2.55;;
71959;SDS011;59832;51.146;14.024;2023-07-22T09:51:59;2.60;;;2.40;;
71959;SDS011;59832;51.146;14.024;2023-07-22T09:54:28;3.75;;;2.47;;
71959;SDS011;59832;51.146;14.024;2023-07-22T09:56:57;3.65;;;2.60;;
71959;SDS011;59832;51.146;14.024;2023-07-22T09:59:23;3.28;;;2.90;;
71959;SDS011;59832;51.146;14.024;2023-07-22T10:01:50;2.88;;;2.58;;
71959;SDS011;59832;51.146;14.024;2023-07-22T10:04:18;2.90;;;2.53;;
71959;SDS011;59832;51.146;14.024;2023-07-22T10:06:49;2.85;;;2.65;;
71959;SDS011;59832;51.146;14.024;2023-07-22T10:09:17;2.50;;;2.30;;
71959;SDS011;59832;51.146;14.024;2023-07-22T10:14:10;2.63;;;2.42;;
71959;SDS011;59832;51.146;14.024;2023-07-22T10:16:38;2.60;;;2.40;;
71959;SDS011;59832;51.146;14.024;2023-07-22T10:19:05;2.60;;;2.40;;
71959;SDS011;59832;51.146;14.024;2023-07-22T10:21:33;2.40;;;2.20;;
71959;SDS011;59832;51.146;14.024;2023-07-22T10:24:01;3.30;;;2.38;;
71959;SDS011;59832;51.146;14.024;2023-07-22T10:26:29;2.50;;;2.30;;
71959;SDS011;59832;51.146;14.024;2023-07-22T10:29:12;2.80;;;2.42;;
71959;SDS011;59832;51.146;14.024;2023-07-22T10:31:40;2.53;;;2.33;;
71959;SDS011;59832;51.146;14.024;2023-07-22T10:34:06;2.92;;;2.50;;
71959;SDS011;59832;51.146;14.024;2023-07-22T10:36:34;2.53;;;2.20;;
71959;SDS011;59832;51.146;14.024;2023-07-22T10:39:01;2.25;;;2.10;;
71959;SDS011;59832;51.146;14.024;2023-07-22T10:41:30;2.38;;;2.17;;
71959;SDS011;59832;51.146;14.024;2023-07-22T10:43:58;2.60;;;2.40;;
71959;SDS011;59832;51.146;14.024;2023-07-22T10:46:32;3.03;;;2.70;;
71959;SDS011;59832;51.146;14.024;2023-07-22T10:49:11;2.72;;;2.22;;
71959;SDS011;59832;51.146;14.024;2023-07-22T10:51:49;3.95;;;2.20;;
71959;SDS011;59832;51.146;14.024;2023-07-22T10:54:35;2.60;;;2.30;;
71959;SDS011;59832;51.146;14.024;2023-07-22T10:57:03;2.42;;;2.20;;
71959;SDS011;59832;51.146;14.024;2023-07-22T10:59:51;2.40;;;2.20;;
71959;SDS011;59832;51.146;14.024;2023-07-22T11:04:52;2.88;;;2.50;;
71959;SDS011;59832;51.146;14.024;2023-07-22T11:07:42;2.95;;;2.00;;
71959;SDS011;59832;51.146;14.024;2023-07-22T11:10:17;2.42;;;2.20;;
71959;SDS011;59832;51.146;14.024;2023-07-22T11:12:45;2.50;;;2.30;;
71959;SDS011;59832;51.146;14.024;2023-07-22T11:15:14;2.75;;;2.35;;
71959;SDS011;59832;51.146;14.024;2023-07-22T11:17:41;3.03;;;2.40;;
71959;SDS011;59832;51.146;14.024;2023-07-22T11:20:08;2.28;;;2.08;;
71959;SDS011;59832;51.146;14.024;2023-07-22T11:22:35;2.40;;;2.20;;
71959;SDS011;59832;51.146;14.024;2023-07-22T11:25:06;2.17;;;2.05;;
71959;SDS011;59832;51.146;14.024;2023-07-22T11:27:33;2.47;;;2.28;;
71959;SDS011;59832;51.146;14.024;2023-07-22T11:29:59;7.63;;;2.80;;
71959;SDS011;59832;51.146;14.024;2023-07-22T11:32:29;2.83;;;2.28;;
71959;SDS011;59832;51.146;14.024;2023-07-22T11:34:56;2.97;;;2.42;;
71959;SDS011;59832;51.146;14.024;2023-07-22T11:37:23;2.80;;;2.17;;
71959;SDS011;59832;51.146;14.024;2023-07-22T11:39:49;2.50;;;2.30;;
71959;SDS011;59832;51.146;14.024;2023-07-22T11:42:16;2.88;;;1.95;;
71959;SDS011;59832;51.146;14.024;2023-07-22T11:47:09;2.10;;;2.00;;
71959;SDS011;59832;51.146;14.024;2023-07-22T11:49:36;1.70;;;1.60;;
71959;SDS011;59832;51.146;14.024;2023-07-22T11:52:05;2.00;;;1.80;;
71959;SDS011;59832;51.146;14.024;2023-07-22T11:54:34;2.40;;;2.20;;
71959;SDS011;59832;51.146;14.024;2023-07-22T11:57:11;2.00;;;1.80;;
71959;SDS011;59832;51.146;14.024;2023-07-22T11:59:53;2.47;;;2.28;;
71959;SDS011;59832;51.146;14.024;2023-07-22T12:02:21;2.40;;;2.10;;
71959;SDS011;59832;51.146;14.024;2023-07-22T12:04:52;2.40;;;2.20;;
71959;SDS011;59832;51.146;14.024;2023-07-22T12:07:32;2.80;;;1.73;;
71959;SDS011;59832;51.146;14.024;2023-07-22T12:10:00;2.10;;;1.90;;
71959;SDS011;59832;51.146;14.024;2023-07-22T12:12:33;2.00;;;1.90;;
71959;SDS011;59832;51.146;14.024;2023-07-22T12:17:54;1.90;;;1.80;;
71959;SDS011;59832;51.146;14.024;2023-07-22T12:20:25;2.45;;;1.73;;
71959;SDS011;59832;51.146;14.024;2023-07-22T12:22:53;2.10;;;1.90;;
71959;SDS011;59832;51.146;14.024;2023-07-22T12:25:21;1.95;;;1.85;;
71959;SDS011;59832;51.146;14.024;2023-07-22T12:27:47;2.10;;;1.88;;
71959;SDS011;59832;51.146;14.024;2023-07-22T12:30:14;2.13;;;1.95;;
71959;SDS011;59832;51.146;14.024;2023-07-22T12:32:45;2.40;;;2.20;;
71959;SDS011;59832;51.146;14.024;2023-07-22T12:35:12;2.25;;;2.10;;
71959;SDS011;59832;51.146;14.024;2023-07-22T12:37:40;3.95;;;2.25;;
71959;SDS011;59832;51.146;14.024;2023-07-22T12:40:06;2.28;;;2.10;;
71959;SDS011;59832;51.146;14.024;2023-07-22T12:42:35;1.95;;;1.85;;
71959;SDS011;59832;51.146;14.024;2023-07-22T12:45:04;2.85;;;1.92;;
71959;SDS011;59832;51.146;14.024;2023-07-22T12:47:31;2.22;;;2.08;;
71959;SDS011;59832;51.146;14.024;2023-07-22T12:49:58;1.80;;;1.70;;
71959;SDS011;59832;51.146;14.024;2023-07-22T12:52:25;2.00;;;1.90;;
71959;SDS011;59832;51.146;14.024;2023-07-22T12:54:51;2.22;;;1.85;;
71959;SDS011;59832;51.146;14.024;2023-07-22T12:57:18;2.00;;;1.90;;
71959;SDS011;59832;51.146;14.024;2023-07-22T12:59:44;2.10;;;1.90;;
71959;SDS011;59832;51.146;14.024;2023-07-22T13:02:13;2.03;;;1.83;;
71959;SDS011;59832;51.146;14.024;2023-07-22T13:04:40;1.83;;;1.73;;
71959;SDS011;59832;51.146;14.024;2023-07-22T13:07:06;2.10;;;1.80;;
71959;SDS011;59832;51.146;14.024;2023-07-22T13:09:33;1.92;;;1.73;;
71959;SDS011;59832;51.146;14.024;2023-07-22T13:12:00;2.03;;;1.83;;
71959;SDS011;59832;51.146;14.024;2023-07-22T13:14:26;2.20;;;2.10;;
71959;SDS011;59832;51.146;14.024;2023-07-22T13:16:53;7.03;;;2.05;;
71959;SDS011;59832;51.146;14.024;2023-07-22T13:19:19;2.22;;;2.03;;
71959;SDS011;59832;51.146;14.024;2023-07-22T13:21:45;2.15;;;1.98;;
71959;SDS011;59832;51.146;14.024;2023-07-22T13:24:12;2.60;;;2.17;;
71959;SDS011;59832;51.146;14.024;2023-07-22T13:26:38;2.08;;;1.88;;
71959;SDS011;59832;51.146;14.024;2023-07-22T13:31:32;2.00;;;1.90;;
71959;SDS011;59832;51.146;14.024;2023-07-22T13:33:59;2.10;;;1.90;;
71959;SDS011;59832;51.146;14.024;2023-07-22T13:36:25;2.28;;;2.03;;
71959;SDS011;59832;51.146;14.024;2023-07-22T13:38:52;3.45;;;1.90;;
71959;SDS011;59832;51.146;14.024;2023-07-22T13:41:18;1.80;;;1.70;;
71959;SDS011;59832;51.146;14.024;2023-07-22T13:43:45;2.95;;;2.10;;
71959;SDS011;59832;51.146;14.024;2023-07-22T13:46:12;2.58;;;2.20;;
71959;SDS011;59832;51.146;14.024;2023-07-22T13:48:38;2.30;;;2.10;;
71959;SDS011;59832;51.146;14.024;2023-07-22T13:51:04;1.90;;;1.80;;
71959;SDS011;59832;51.146;14.024;2023-07-22T13:53:31;2.28;;;2.13;;
71959;SDS011;59832;51.146;14.024;2023-07-22T13:55:57;2.25;;;2.05;;
71959;SDS011;59832;51.146;14.024;2023-07-22T13:58:24;2.25;;;2.05;;
71959;SDS011;59832;51.146;14.024;2023-07-22T14:00:50;2.75;;;2.50;;
71959;SDS011;59832;51.146;14.024;2023-07-22T14:03:17;2.67;;;2.47;;
71959;SDS011;59832;51.146;14.024;2023-07-22T14:05:44;2.60;;;2.40;;
71959;SDS011;59832;51.146;14.024;2023-07-22T14:08:10;2.38;;;1.80;;
71959;SDS011;59832;51.146;14.024;2023-07-22T14:10:36;4.10;;;2.00;;
71959;SDS011;59832;51.146;14.024;2023-07-22T14:13:03;2.17;;;2.08;;
71959;SDS011;59832;51.146;14.024;2023-07-22T14:15:29;3.05;;;2.10;;
71959;SDS011;59832;51.146;14.024;2023-07-22T14:17:56;2.33;;;2.20;;
71959;SDS011;59832;51.146;14.024;2023-07-22T14:20:23;2.20;;;2.00;;
71959;SDS011;59832;51.146;14.024;2023-07-22T14:22:49;2.15;;;1.95;;
71959;SDS011;59832;51.146;14.024;2023-07-22T14:25:16;2.58;;;2.17;;
71959;SDS011;59832;51.146;14.024;2023-07-22T14:27:43;2.15;;;1.90;;
71959;SDS011;59832;51.146;14.024;2023-07-22T14:30:09;2.55;;;2.17;;
71959;SDS011;59832;51.146;14.024;2023-07-22T14:32:36;2.10;;;2.00;;
71959;SDS011;59832;51.146;14.024;2023-07-22T14:35:03;2.10;;;1.90;;
71959;SDS011;59832;51.146;14.024;2023-07-22T14:37:30;3.60;;;2.40;;
71959;SDS011;59832;51.146;14.024;2023-07-22T14:39:57;2.33;;;2.22;;
71959;SDS011;59832;51.146;14.024;2023-07-22T14:42:23;2.30;;;2.10;;
71959;SDS011;59832;51.146;14.024;2023-07-22T14:44:50;2.45;;;2.20;;
71959;SDS011;59832;51.146;14.024;2023-07-22T14:47:16;2.25;;;2.05;;
71959;SDS011;59832;51.146;14.024;2023-07-22T14:49:43;2.30;;;2.20;;
71959;SDS011;59832;51.146;14.024;2023-07-22T14:52:09;2.42;;;2.22;;
71959;SDS011;59832;51.146;14.024;2023-07-22T14:54:35;2.25;;;2.10;;
71959;SDS011;59832;51.146;14.024;2023-07-22T14:57:02;2.58;;;2.38;;
71959;SDS011;59832;51.146;14.024;2023-07-22T14:59:29;2.40;;;2.20;;
71959;SDS011;59832;51.146;14.024;2023-07-22T15:01:55;2.42;;;2.22;;
71959;SDS011;59832;51.146;14.024;2023-07-22T15:04:22;2.58;;;2.28;;
71959;SDS011;59832;51.146;14.024;2023-07-22T15:06:49;2.30;;;2.10;;
71959;SDS011;59832;51.146;14.024;2023-07-22T15:09:16;3.35;;;2.63;;
71959;SDS011;59832;51.146;14.024;2023-07-22T15:11:42;2.72;;;2.30;;
71959;SDS011;59832;51.146;14.024;2023-07-22T15:14:09;2.17;;;1.98;;
71959;SDS011;59832;51.146;14.024;2023-07-22T15:16:36;4.63;;;2.30;;
71959;SDS011;59832;51.146;14.024;2023-07-22T15:19:02;3.33;;;2.40;;
71959;SDS011;59832;51.146;14.024;2023-07-22T15:21:29;2.05;;;1.90;;
71959;SDS011;59832;51.146;14.024;2023-07-22T15:23:55;2.53;;;2.33;;
71959;SDS011;59832;51.146;14.024;2023-07-22T15:26:22;2.45;;;2.25;;
71959;SDS011;59832;51.146;14.024;2023-07-22T15:28:48;2.53;;;2.33;;
71959;SDS011;59832;51.146;14.024;2023-07-22T15:31:18;2.30;;;2.10;;
71959;SDS011;59832;51.146;14.024;2023-07-22T15:33:45;2.40;;;2.20;;
71959;SDS011;59832;51.146;14.024;2023-07-22T15:36:12;2.40;;;2.22;;
71959;SDS011;59832;51.146;14.024;2023-07-22T15:38:39;2.60;;;2.40;;
71959;SDS011;59832;51.146;14.024;2023-07-22T15:41:05;2.35;;;2.15;;
71959;SDS011;59832;51.146;14.024;2023-07-22T15:43:31;2.65;;;2.42;;
71959;SDS011;59832;51.146;14.024;2023-07-22T15:45:58;2.47;;;2.28;;
71959;SDS011;59832;51.146;14.024;2023-07-22T15:48:25;2.28;;;2.17;;
71959;SDS011;59832;51.146;14.024;2023-07-22T15:50:51;2.88;;;2.20;;
71959;SDS011;59832;51.146;14.024;2023-07-22T15:53:18;2.45;;;2.25;;
71959;SDS011;59832;51.146;14.024;2023-07-22T15:55:45;2.60;;;2.40;;
71959;SDS011;59832;51.146;14.024;2023-07-22T15:58:12;2.58;;;2.38;;
71959;SDS011;59832;51.146;14.024;2023-07-22T16:00:38;2.47;;;2.35;;
71959;SDS011;59832;51.146;14.024;2023-07-22T16:03:05;2.33;;;2.13;;
71959;SDS011;59832;51.146;14.024;2023-07-22T16:05:32;2.70;;;2.50;;
71959;SDS011;59832;51.146;14.024;2023-07-22T16:07:58;2.40;;;2.20;;
71959;SDS011;59832;51.146;14.024;2023-07-22T16:10:25;4.68;;;2.55;;
71959;SDS011;59832;51.146;14.024;2023-07-22T16:12:51;2.58;;;2.17;;
71959;SDS011;59832;51.146;14.024;2023-07-22T16:15:18;2.00;;;1.90;;
71959;SDS011;59832;51.146;14.024;2023-07-22T16:17:45;2.30;;;2.20;;
71959;SDS011;59832;51.146;14.024;2023-07-22T16:20:11;2.42;;;2.30;;
71959;SDS011;59832;51.146;14.024;2023-07-22T16:25:05;2.55;;;2.35;;
71959;SDS011;59832;51.146;14.024;2023-07-22T16:27:31;2.45;;;2.25;;
71959;SDS011;59832;51.146;14.024;2023-07-22T16:29:58;2.60;;;2.40;;
71959;SDS011;59832;51.146;14.024;2023-07-22T16:32:24;2.65;;;2.45;;
71959;SDS011;59832;51.146;14.024;2023-07-22T16:34:51;2.75;;;2.55;;
71959;SDS011;59832;51.146;14.024;2023-07-22T16:37:17;3.65;;;2.63;;
71959;SDS011;59832;51.146;14.024;2023-07-22T16:39:44;2.70;;;2.50;;
71959;SDS011;59832;51.146;14.024;2023-07-22T16:42:10;2.88;;;2.58;;
71959;SDS011;59832;51.146;14.024;2023-07-22T16:44:37;2.50;;;2.30;;
71959;SDS011;59832;51.146;14.024;2023-07-22T16:47:04;3.25;;;2.53;;
71959;SDS011;59832;51.146;14.024;2023-07-22T16:49:30;4.45;;;2.45;;
71959;SDS011;59832;51.146;14.024;2023-07-22T16:51:57;2.70;;;2.50;;
71959;SDS011;59832;51.146;14.024;2023-07-22T16:54:23;2.88;;;2.60;;
71959;SDS011;59832;51.146;14.024;2023-07-22T16:56:50;4.28;;;2.60;;
71959;SDS011;59832;51.146;14.024;2023-07-22T16:59:16;3.08;;;2.67;;
71959;SDS011;59832;51.146;14.024;2023-07-22T17:01:43;2.53;;;2.33;;
71959;SDS011;59832;51.146;14.024;2023-07-22T17:04:09;2.92;;;2.47;;
71959;SDS011;59832;51.146;14.024;2023-07-22T17:06:37;2.88;;;2.67;;
71959;SDS011;59832;51.146;14.024;2023-07-22T17:09:03;3.72;;;2.78;;
71959;SDS011;59832;51.146;14.024;2023-07-22T17:11:30;3.10;;;2.85;;
71959;SDS011;59832;51.146;14.024;2023-07-22T17:13:57;3.00;;;2.80;;
71959;SDS011;59832;51.146;14.024;2023-07-22T17:16:24;2.80;;;2.60;;
71959;SDS011;59832;51.146;14.024;2023-07-22T17:18:50;2.67;;;2.47;;
71959;SDS011;59832;51.146;14.024;2023-07-22T17:21:17;2.80;;;2.60;;
71959;SDS011;59832;51.146;14.024;2023-07-22T17:23:43;2.60;;;2.40;;
71959;SDS011;59832;51.146;14.024;2023-07-22T17:26:10;2.85;;;2.65;;
71959;SDS011;59832;51.146;14.024;2023-07-22T17:28:37;3.00;;;2.30;;
71959;SDS011;59832;51.146;14.024;2023-07-22T17:31:04;3.10;;;2.80;;
71959;SDS011;59832;51.146;14.024;2023-07-22T17:33:31;3.63;;;2.75;;
71959;SDS011;59832;51.146;14.024;2023-07-22T17:35:57;4.47;;;2.80;;
71959;SDS011;59832;51.146;14.024;2023-07-22T17:38:24;3.15;;;2.95;;
71959;SDS011;59832;51.146;14.024;2023-07-22T17:40:51;3.08;;;2.70;;
71959;SDS011;59832;51.146;14.024;2023-07-22T17:43:17;2.97;;;2.72;;
71959;SDS011;59832;51.146;14.024;2023-07-22T17:45:44;3.00;;;2.80;;
71959;SDS011;59832;51.146;14.024;2023-07-22T17:48:10;2.75;;;2.55;;
71959;SDS011;59832;51.146;14.024;2023-07-22T17:50:37;3.00;;;2.80;;
71959;SDS011;59832;51.146;14.024;2023-07-22T17:53:04;2.80;;;2.60;;
71959;SDS011;59832;51.146;14.024;2023-07-22T17:55:30;4.40;;;2.83;;
71959;SDS011;59832;51.146;14.024;2023-07-22T17:57:57;2.83;;;2.53;;
71959;SDS011;59832;51.146;14.024;2023-07-22T18:00:23;2.55;;;2.35;;
71959;SDS011;59832;51.146;14.024;2023-07-22T18:02:50;3.10;;;2.80;;
71959;SDS011;59832;51.146;14.024;2023-07-22T18:05:17;2.88;;;2.53;;
71959;SDS011;59832;51.146;14.024;2023-07-22T18:07:43;2.88;;;2.53;;
71959;SDS011;59832;51.146;14.024;2023-07-22T18:10:10;2.72;;;2.53;;
71959;SDS011;59832;51.146;14.024;2023-07-22T18:12:36;3.05;;;2.85;;
71959;SDS011;59832;51.146;14.024;2023-07-22T18:15:03;4.38;;;2.50;;
71959;SDS011;59832;51.146;14.024;2023-07-22T18:17:29;3.25;;;2.80;;
71959;SDS011;59832;51.146;14.024;2023-07-22T18:19:56;2.70;;;2.50;;
71959;SDS011;59832;51.146;14.024;2023-07-22T18:22:23;2.88;;;2.67;;
71959;SDS011;59832;51.146;14.024;2023-07-22T18:24:49;2.95;;;2.72;;
71959;SDS011;59832;51.146;14.024;2023-07-22T18:27:16;3.40;;;2.67;;
71959;SDS011;59832;51.146;14.024;2023-07-22T18:29:42;3.50;;;3.20;;
71959;SDS011;59832;51.146;14.024;2023-07-22T18:32:09;3.35;;;3.05;;
71959;SDS011;59832;51.146;14.024;2023-07-22T18:34:35;2.70;;;2.50;;
71959;SDS011;59832;51.146;14.024;2023-07-22T18:37:02;3.38;;;3.08;;
71959;SDS011;59832;51.146;14.024;2023-07-22T18:39:29;3.92;;;3.03;;
71959;SDS011;59832;51.146;14.024;2023-07-22T18:41:55;3.13;;;2.90;;
71959;SDS011;59832;51.146;14.024;2023-07-22T18:44:22;3.47;;;3.17;;
71959;SDS011;59832;51.146;14.024;2023-07-22T18:46:48;3.30;;;3.00;;
71959;SDS011;59832;51.146;14.024;2023-07-22T18:49:15;3.67;;;3.17;;
71959;SDS011;59832;51.146;14.024;2023-07-22T18:51:41;4.00;;;3.10;;
71959;SDS011;59832;51.146;14.024;2023-07-22T18:54:08;3.25;;;2.95;;
71959;SDS011;59832;51.146;14.024;2023-07-22T18:56:37;3.40;;;3.10;;
71959;SDS011;59832;51.146;14.024;2023-07-22T18:59:04;3.67;;;3.38;;